createdAt,value
2018-05-12T00:01:15.413Z,8.93
2018-05-12T00:03:45.170Z,8.73
2018-05-12T00:06:18.042Z,9.30
2018-05-12T00:08:47.561Z,8.27
2018-05-12T00:11:19.086Z,9.30
2018-05-12T00:13:47.583Z,9.53
2018-05-12T00:16:22.310Z,10.13
2018-05-12T00:18:52.563Z,10.03
2018-05-12T00:21:23.744Z,10.40
2018-05-12T00:23:52.267Z,10.17
2018-05-12T00:26:26.130Z,10.37
2018-05-12T00:28:54.599Z,9.73
2018-05-12T00:31:37.095Z,11.03
2018-05-12T00:34:05.844Z,10.37
2018-05-12T00:36:35.111Z,10.50
2018-05-12T00:39:05.262Z,10.13
2018-05-12T00:41:35.202Z,10.63
2018-05-12T00:44:03.770Z,11.73
2018-05-12T00:46:36.064Z,11.70
2018-05-12T00:49:04.792Z,10.50
2018-05-12T00:51:45.610Z,11.70
2018-05-12T00:54:14.141Z,11.30
2018-05-12T00:56:42.868Z,10.97
2018-05-12T00:59:12.855Z,11.47
2018-05-12T01:01:42.066Z,12.03
2018-05-12T01:04:11.843Z,11.63
2018-05-12T01:06:44.437Z,11.33
2018-05-12T01:09:12.904Z,12.17
2018-05-12T01:11:55.279Z,12.50
2018-05-12T01:14:24.178Z,11.87
2018-05-12T01:16:52.934Z,11.30
2018-05-12T01:19:22.527Z,12.03
2018-05-12T01:21:52.065Z,11.73
2018-05-12T01:24:21.566Z,11.40
2018-05-12T01:27:03.112Z,11.70
2018-05-12T01:29:33.371Z,11.87
2018-05-12T01:32:02.656Z,11.50
2018-05-12T01:34:33.317Z,11.60
2018-05-12T01:37:03.128Z,12.57
2018-05-12T01:39:33.246Z,12.43
2018-05-12T01:42:02.143Z,12.37
2018-05-12T01:44:30.883Z,14.07
2018-05-12T01:47:04.902Z,13.40
2018-05-12T01:49:33.656Z,13.90
2018-05-12T01:52:07.647Z,13.13
2018-05-12T01:54:36.116Z,13.37
2018-05-12T01:57:09.531Z,13.87
2018-05-12T01:59:38.398Z,12.90
2018-05-12T02:02:12.582Z,14.63
2018-05-12T02:04:42.607Z,13.83
2018-05-12T02:07:14.846Z,12.87
2018-05-12T02:09:44.498Z,13.13
2018-05-12T02:12:16.669Z,14.43
2018-05-12T02:14:46.166Z,14.07
2018-05-12T02:17:18.019Z,14.97
2018-05-12T02:19:46.796Z,15.70
2018-05-12T02:22:19.861Z,14.27
2018-05-12T02:24:49.121Z,15.87
2018-05-12T02:27:21.934Z,15.33
2018-05-12T02:29:50.803Z,15.50
2018-05-12T02:32:32.739Z,16.33
2018-05-12T02:35:01.248Z,15.73
2018-05-12T02:37:29.993Z,15.00
2018-05-12T02:39:58.467Z,15.73
2018-05-12T02:42:30.755Z,16.03
2018-05-12T02:44:59.551Z,15.67
2018-05-12T02:47:33.116Z,16.60
2018-05-12T02:50:01.609Z,16.07
2018-05-12T02:52:43.634Z,16.07
2018-05-12T02:55:12.899Z,17.27
2018-05-12T02:57:43.177Z,16.73
2018-05-12T03:00:11.657Z,16.17
2018-05-12T03:02:40.935Z,16.57
2018-05-12T03:05:11.235Z,17.10
2018-05-12T03:07:41.007Z,16.10
2018-05-12T03:10:09.618Z,18.00
2018-05-12T03:12:42.916Z,18.17
2018-05-12T03:15:11.456Z,18.33
2018-05-12T03:17:45.570Z,18.33
2018-05-12T03:20:15.507Z,18.37
2018-05-12T03:22:49.038Z,18.90
2018-05-12T03:25:18.654Z,20.00
2018-05-12T03:27:51.236Z,18.80
2018-05-12T03:30:21.075Z,18.67
2018-05-12T03:32:53.919Z,17.90
2018-05-12T03:35:23.370Z,17.93
2018-05-12T03:37:55.234Z,18.37
2018-05-12T03:40:24.730Z,18.87
2018-05-12T03:43:06.396Z,18.97
2018-05-12T03:45:36.736Z,17.57
2018-05-12T03:48:06.372Z,16.77
2018-05-12T03:50:36.338Z,16.97
2018-05-12T03:53:06.189Z,17.97
2018-05-12T03:55:36.179Z,18.57
2018-05-12T03:58:05.558Z,16.60
2018-05-12T04:00:35.409Z,18.53
2018-05-12T04:03:17.909Z,19.07
2018-05-12T04:10:09.746Z,19.00
2018-05-12T04:12:39.062Z,19.03
2018-05-12T04:15:12.170Z,19.07
2018-05-12T04:17:42.166Z,18.30
2018-05-12T04:20:19.771Z,20.13
2018-05-12T04:22:48.274Z,19.23
2018-05-12T04:25:19.529Z,18.50
2018-05-12T04:27:50.984Z,18.23
2018-05-12T04:30:23.000Z,18.97
2018-05-12T04:32:51.512Z,18.47
2018-05-12T04:35:24.055Z,17.67
2018-05-12T04:37:52.552Z,18.30
2018-05-12T04:40:25.971Z,16.83
2018-05-12T04:42:55.461Z,16.23
2018-05-12T04:45:27.904Z,16.43
2018-05-12T04:47:57.650Z,16.77
2018-05-12T04:50:30.170Z,16.33
2018-05-12T04:52:59.678Z,17.00
2018-05-12T04:55:32.328Z,17.73
2018-05-12T04:58:01.845Z,15.83
2018-05-12T05:00:35.336Z,15.57
2018-05-12T05:03:04.905Z,17.30
2018-05-12T05:05:37.250Z,16.90
2018-05-12T05:08:07.538Z,15.03
2018-05-12T05:10:39.851Z,16.77
2018-05-12T05:13:09.939Z,16.00
2018-05-12T05:15:42.222Z,16.37
2018-05-12T05:18:11.741Z,15.63
2018-05-12T05:20:43.708Z,16.30
2018-05-12T05:23:13.322Z,15.17
2018-05-12T05:25:54.168Z,16.50
2018-05-12T05:28:23.638Z,16.40
2018-05-12T05:30:53.151Z,16.60
2018-05-12T05:33:22.410Z,16.73
2018-05-12T05:35:51.558Z,15.80
2018-05-12T05:38:20.415Z,16.10
2018-05-12T05:40:53.635Z,15.67
2018-05-12T05:43:23.162Z,15.67
2018-05-12T05:45:56.134Z,15.90
2018-05-12T05:48:25.617Z,16.73
2018-05-12T05:50:58.799Z,15.60
2018-05-12T05:53:27.703Z,15.90
2018-05-12T05:56:01.357Z,14.47
2018-05-12T05:58:30.153Z,13.87
2018-05-12T06:01:10.994Z,13.33
2018-05-12T06:03:40.476Z,13.57
2018-05-12T06:06:09.725Z,13.30
2018-05-12T06:08:38.240Z,13.53
2018-05-12T06:11:10.103Z,12.93
2018-05-12T06:13:38.570Z,12.10
2018-05-12T06:16:19.643Z,11.38
2018-05-12T06:18:48.941Z,11.95
2018-05-12T06:21:17.692Z,11.68
2018-05-12T06:23:46.657Z,12.85
2018-05-12T06:26:17.047Z,12.10
2018-05-12T06:28:45.766Z,11.82
2018-05-12T06:31:18.160Z,11.80
2018-05-12T06:33:47.434Z,11.32
2018-05-12T06:36:20.882Z,10.57
2018-05-12T06:38:49.788Z,11.10
2018-05-12T06:41:30.640Z,10.43
2018-05-12T06:43:59.504Z,11.43
2018-05-12T06:46:28.705Z,12.60
2018-05-12T06:48:57.955Z,11.80
2018-05-12T06:51:26.831Z,12.32
2018-05-12T06:53:57.135Z,12.23
2018-05-12T06:56:28.800Z,13.13
2018-05-12T06:58:58.464Z,13.07
2018-05-12T07:01:31.259Z,11.37
2018-05-12T07:04:01.014Z,11.45
2018-05-12T07:06:34.921Z,11.18
2018-05-12T07:09:04.587Z,12.07
2018-05-12T07:11:36.086Z,11.20
2018-05-12T07:14:05.088Z,10.82
2018-05-12T07:16:38.361Z,11.63
2018-05-12T07:19:07.668Z,10.35
2018-05-12T07:21:40.916Z,10.93
2018-05-12T07:24:10.490Z,12.27
2018-05-12T07:26:42.404Z,11.12
2018-05-12T07:29:11.791Z,10.27
2018-05-12T07:31:44.925Z,11.05
2018-05-12T07:34:14.115Z,10.77
2018-05-12T07:36:55.696Z,9.82
2018-05-12T07:39:27.910Z,11.18
2018-05-12T07:41:56.801Z,9.32
2018-05-12T07:44:25.303Z,9.30
2018-05-12T07:46:54.624Z,8.32
2018-05-12T07:49:23.130Z,8.10
2018-05-12T07:51:54.709Z,7.65
2018-05-12T07:54:25.007Z,8.85
2018-05-12T07:56:57.340Z,11.40
2018-05-12T07:59:26.668Z,12.98
2018-05-12T08:02:09.090Z,10.88
2018-05-12T08:04:38.015Z,12.25
2018-05-12T08:07:08.465Z,11.68
2018-05-12T08:09:36.951Z,11.30
2018-05-12T08:12:07.088Z,10.30
2018-05-12T08:14:35.883Z,9.77
2018-05-12T08:17:07.919Z,9.40
2018-05-12T08:19:36.824Z,10.65
2018-05-12T08:22:11.435Z,9.18
2018-05-12T08:24:40.355Z,9.50
2018-05-12T08:27:22.132Z,9.90
2018-05-12T08:29:51.212Z,9.10
2018-05-12T08:32:20.228Z,9.70
2018-05-12T08:34:49.876Z,8.15
2018-05-12T08:37:19.483Z,7.80
2018-05-12T08:39:49.275Z,7.07
2018-05-12T08:42:22.119Z,8.02
2018-05-12T08:44:51.319Z,6.62
2018-05-12T08:47:23.055Z,6.47
2018-05-12T08:49:52.115Z,5.80
2018-05-12T08:52:24.988Z,5.37
2018-05-12T08:54:53.891Z,3.45
2018-05-12T08:57:35.633Z,3.30
2018-05-12T09:00:04.793Z,3.03
2018-05-12T09:02:33.338Z,2.85
2018-05-12T09:05:01.900Z,2.78
2018-05-12T09:07:31.681Z,2.87
2018-05-12T09:10:00.653Z,3.25
2018-05-12T09:12:41.956Z,3.15
2018-05-12T09:15:11.997Z,3.03
2018-05-12T09:17:41.991Z,2.30
2018-05-12T09:20:11.403Z,2.20
2018-05-12T09:22:40.880Z,2.72
2018-05-12T09:25:10.410Z,2.47
2018-05-12T09:27:41.111Z,2.67
2018-05-12T09:30:09.966Z,2.53
2018-05-12T09:32:52.181Z,2.97
2018-05-12T09:35:22.989Z,3.28
2018-05-12T09:37:52.995Z,3.70
2018-05-12T09:40:22.563Z,3.43
2018-05-12T09:42:51.526Z,3.27
2018-05-12T09:45:21.074Z,2.87
2018-05-12T09:47:51.704Z,3.37
2018-05-12T09:50:21.242Z,3.60
2018-05-12T09:52:54.087Z,3.10
2018-05-12T09:55:23.740Z,2.80
2018-05-12T09:57:54.909Z,2.90
2018-05-12T10:00:25.203Z,3.20
2018-05-12T10:02:58.522Z,2.93
2018-05-12T10:05:27.030Z,3.07
2018-05-12T10:08:00.320Z,2.87
2018-05-12T10:10:30.016Z,2.87
2018-05-12T10:13:06.647Z,2.57
2018-05-12T10:15:36.353Z,3.13
2018-05-12T10:18:06.739Z,3.00
2018-05-12T10:20:36.306Z,3.73
2018-05-12T10:23:10.325Z,3.13
2018-05-12T10:25:39.307Z,2.77
2018-05-12T10:28:20.819Z,2.80
2018-05-12T10:30:50.674Z,2.80
2018-05-12T10:33:20.086Z,3.00
2018-05-12T10:35:53.465Z,3.27
2018-05-12T10:38:23.358Z,3.00
2018-05-12T10:40:52.952Z,3.37
2018-05-12T10:43:22.490Z,2.90
2018-05-12T10:45:52.352Z,2.93
2018-05-12T10:48:21.866Z,3.33
2018-05-12T10:50:51.365Z,3.10
2018-05-12T10:53:22.348Z,3.33
2018-05-12T10:55:51.899Z,2.90
2018-05-12T10:58:25.472Z,2.90
2018-05-12T11:00:55.303Z,2.93
2018-05-12T11:03:26.604Z,3.00
2018-05-12T11:05:55.125Z,2.77
2018-05-12T11:08:29.524Z,3.20
2018-05-12T11:10:58.799Z,2.80
2018-05-12T11:13:39.836Z,3.13
2018-05-12T11:16:09.792Z,2.90
2018-05-12T11:18:39.319Z,2.97
2018-05-12T11:21:08.199Z,3.20
2018-05-12T11:23:36.975Z,2.83
2018-05-12T11:26:07.061Z,2.80
2018-05-12T11:28:39.599Z,2.93
2018-05-12T11:31:08.839Z,3.03
2018-05-12T11:33:41.968Z,3.20
2018-05-12T11:36:12.232Z,3.13
2018-05-12T11:38:43.159Z,3.00
2018-05-12T11:41:12.768Z,2.97
2018-05-12T11:43:54.487Z,2.93
2018-05-12T11:46:23.285Z,3.33
2018-05-12T11:48:53.395Z,3.07
2018-05-12T11:51:22.994Z,3.20
2018-05-12T11:53:52.852Z,2.80
2018-05-12T11:56:22.541Z,3.03
2018-05-12T11:58:54.907Z,2.73
2018-05-12T12:01:25.376Z,2.80
2018-05-12T12:03:57.082Z,2.83
2018-05-12T12:06:26.681Z,2.83
2018-05-12T12:08:58.544Z,3.27
2018-05-12T12:11:27.121Z,2.90
2018-05-12T12:14:02.822Z,3.37
2018-05-12T12:16:32.760Z,3.13
2018-05-12T12:19:05.246Z,2.57
2018-05-12T12:21:34.599Z,2.70
2018-05-12T12:24:07.100Z,2.83
2018-05-12T12:26:36.751Z,3.07
2018-05-12T12:29:18.719Z,3.20
2018-05-12T12:31:47.887Z,3.22
2018-05-12T12:34:17.801Z,3.60
2018-05-12T12:36:48.927Z,3.22
2018-05-12T12:39:18.223Z,3.07
2018-05-12T12:41:47.884Z,3.27
2018-05-12T12:44:18.446Z,3.77
2018-05-12T12:46:49.639Z,3.63
2018-05-12T12:49:20.064Z,3.10
2018-05-12T12:51:49.529Z,3.30
2018-05-12T12:54:23.365Z,3.60
2018-05-12T12:56:52.289Z,4.20
2018-05-12T12:59:24.594Z,4.28
2018-05-12T13:01:54.530Z,3.50
2018-05-12T13:04:28.231Z,4.35
2018-05-12T13:06:56.783Z,4.30
2018-05-12T13:09:29.225Z,4.37
2018-05-12T13:11:58.186Z,4.25
2018-05-12T13:14:30.618Z,4.03
2018-05-12T13:17:01.206Z,4.43
2018-05-12T13:19:32.520Z,4.43
2018-05-12T13:22:02.132Z,4.70
2018-05-12T13:24:36.056Z,5.70
2018-05-12T13:27:06.306Z,5.30
2018-05-12T13:29:39.295Z,4.47
2018-05-12T13:32:08.187Z,4.33
2018-05-12T13:34:41.234Z,4.17
2018-05-12T13:37:10.236Z,4.37
2018-05-12T13:39:42.168Z,4.15
2018-05-12T13:42:10.713Z,4.03
2018-05-12T13:44:44.511Z,4.63
2018-05-12T13:47:15.426Z,4.68
2018-05-12T13:49:48.955Z,4.28
2018-05-12T13:52:18.732Z,4.72
2018-05-12T13:54:50.435Z,4.00
2018-05-12T13:57:19.723Z,5.10
2018-05-12T14:00:01.170Z,4.55
2018-05-12T14:02:30.453Z,4.43
2018-05-12T14:04:59.409Z,4.12
2018-05-12T14:07:29.088Z,4.40
2018-05-12T14:09:58.245Z,4.27
2018-05-12T14:12:27.557Z,3.80
2018-05-12T14:15:00.139Z,4.50
2018-05-12T14:17:29.112Z,4.40
2018-05-12T14:20:11.333Z,4.50
2018-05-12T14:22:41.013Z,4.60
2018-05-12T14:25:11.079Z,3.80
2018-05-12T14:27:40.074Z,4.03
2018-05-12T14:30:10.490Z,4.00
2018-05-12T14:32:39.071Z,3.60
2018-05-12T14:35:12.150Z,4.27
2018-05-12T14:37:42.653Z,3.80
2018-05-12T15:02:39.675Z,3.80
2018-05-12T15:05:09.783Z,4.17
2018-05-12T15:07:41.219Z,4.00
2018-05-12T15:10:10.760Z,3.70
2018-05-12T15:12:42.848Z,3.93
2018-05-12T15:15:12.721Z,4.10
2018-05-12T15:17:42.354Z,4.07
2018-05-12T15:20:12.278Z,3.87
2018-05-12T15:22:43.163Z,3.60
2018-05-12T15:25:12.933Z,4.20
2018-05-12T15:27:42.300Z,4.23
2018-05-12T15:30:12.870Z,3.70
2018-05-12T15:32:42.585Z,4.00
2018-05-12T15:35:11.233Z,4.20
2018-05-12T15:37:41.980Z,3.73
2018-05-12T15:40:11.586Z,3.60
2018-05-12T15:42:53.598Z,3.73
2018-05-12T15:45:23.471Z,3.50
2018-05-12T15:47:53.671Z,4.00
2018-05-12T15:50:25.333Z,4.30
2018-05-12T15:52:55.646Z,4.00
2018-05-12T15:55:25.266Z,4.30
2018-05-12T15:57:55.037Z,4.20
2018-05-12T16:00:25.273Z,4.43
2018-05-12T16:02:53.929Z,4.33
2018-05-12T16:05:22.912Z,4.00
2018-05-12T16:08:05.102Z,4.17
2018-05-12T16:10:34.173Z,4.43
2018-05-12T16:13:04.160Z,4.60
2018-05-12T16:15:33.623Z,4.70
2018-05-12T16:18:02.594Z,4.40
2018-05-12T16:20:32.973Z,4.60
2018-05-12T16:23:04.687Z,4.27
2018-05-12T16:25:34.100Z,4.80
2018-05-12T16:28:09.088Z,4.77
2018-05-12T16:30:38.637Z,4.60
2018-05-12T16:33:11.931Z,4.70
2018-05-12T16:35:41.917Z,5.50
2018-05-12T16:38:13.412Z,4.97
2018-05-12T16:40:43.510Z,4.90
2018-05-12T16:43:15.517Z,5.37
2018-05-12T16:45:57.857Z,5.40
2018-05-12T16:48:28.126Z,5.53
2018-05-12T16:50:58.229Z,4.83
2018-05-12T16:53:27.827Z,5.47
2018-05-12T16:55:56.768Z,5.00
2018-05-12T16:58:26.138Z,4.60
2018-05-12T17:00:55.615Z,5.03
2018-05-12T17:03:25.704Z,5.17
2018-05-12T17:05:55.419Z,4.90
2018-05-12T17:08:24.995Z,4.70
2018-05-12T17:10:54.275Z,4.70
2018-05-12T17:13:28.425Z,4.50
2018-05-12T17:15:57.787Z,4.53
2018-05-12T17:18:30.821Z,5.13
2018-05-12T17:21:00.381Z,4.73
2018-05-12T17:23:33.603Z,4.50
2018-05-12T17:26:03.445Z,5.03
2018-05-12T17:28:35.094Z,4.67
2018-05-12T17:31:04.095Z,5.50
2018-05-12T17:33:37.852Z,4.93
2018-05-12T17:36:07.386Z,4.77
2018-05-12T17:38:48.772Z,5.37
2018-05-12T17:41:18.137Z,5.00
2018-05-12T17:43:47.115Z,4.67
2018-05-12T17:46:16.637Z,4.83
2018-05-12T17:48:46.011Z,5.70
2018-05-12T17:51:14.940Z,4.90
2018-05-12T17:53:47.487Z,5.20
2018-05-12T17:56:17.391Z,5.43
2018-05-12T17:58:49.006Z,5.57
2018-05-12T18:01:18.598Z,5.23
2018-05-12T18:03:52.293Z,5.40
2018-05-12T18:06:22.213Z,5.83
2018-05-12T18:08:56.586Z,5.87
2018-05-12T18:11:26.494Z,5.50
2018-05-12T18:13:57.651Z,5.60
2018-05-12T18:16:27.181Z,5.60
2018-05-12T18:19:00.554Z,5.90
2018-05-12T18:21:30.096Z,5.00
2018-05-12T18:24:03.979Z,6.93
2018-05-12T18:26:34.155Z,6.23
2018-05-12T18:29:06.296Z,6.10
2018-05-12T18:31:35.860Z,5.87
2018-05-12T18:34:08.462Z,6.10
2018-05-12T18:36:37.987Z,6.67
2018-05-12T18:39:20.160Z,6.23
2018-05-12T18:41:52.555Z,7.13
2018-05-12T18:44:21.269Z,6.30
2018-05-12T18:46:50.779Z,6.93
2018-05-12T18:49:20.586Z,7.00
2018-05-12T18:51:49.143Z,7.60
2018-05-12T18:54:19.103Z,7.73
2018-05-12T18:56:48.098Z,7.60
2018-05-12T18:59:21.635Z,7.53
2018-05-12T19:01:51.266Z,7.83
2018-05-12T19:04:33.587Z,7.40
2018-05-12T19:07:03.142Z,7.60
2018-05-12T19:09:33.016Z,7.20
2018-05-12T19:12:03.822Z,7.63
2018-05-12T19:14:34.075Z,7.63
2018-05-12T19:17:03.603Z,7.27
2018-05-12T19:19:34.528Z,6.30
2018-05-12T19:22:04.041Z,7.87
2018-05-12T19:24:34.208Z,7.23
2018-05-12T19:27:03.967Z,7.30
2018-05-12T19:29:32.822Z,6.77
2018-05-12T19:32:02.363Z,6.93
2018-05-12T19:34:35.738Z,7.47
2018-05-12T19:37:05.039Z,7.13
2018-05-12T19:39:48.102Z,7.30
2018-05-12T19:42:18.952Z,7.10
2018-05-12T19:44:48.525Z,7.20
2018-05-12T19:47:18.069Z,7.43
2018-05-12T19:49:47.998Z,7.20
2018-05-12T19:52:18.554Z,7.70
2018-05-12T19:54:48.185Z,7.57
2018-05-12T19:57:18.082Z,7.50
2018-05-12T19:59:47.866Z,7.23
2018-05-12T20:02:16.386Z,7.60
2018-05-12T20:04:49.827Z,8.23
2018-05-12T20:07:18.373Z,7.27
2018-05-12T20:09:51.956Z,7.97
2018-05-12T20:12:21.665Z,7.73
2018-05-12T20:14:55.875Z,7.93
2018-05-12T20:17:25.458Z,7.50
2018-05-12T20:19:58.134Z,7.47
2018-05-12T20:22:27.629Z,8.10
2018-05-12T20:25:00.685Z,12.23
2018-05-12T20:27:30.992Z,10.43
2018-05-12T20:30:05.468Z,8.27
2018-05-12T20:32:35.056Z,7.63
2018-05-12T20:35:06.680Z,8.90
2018-05-12T20:37:36.310Z,7.83
2018-05-12T20:40:17.683Z,7.67
2018-05-12T20:42:47.643Z,7.93
2018-05-12T20:45:17.313Z,8.20
2018-05-12T20:47:47.025Z,8.23
2018-05-12T20:50:16.868Z,7.97
2018-05-12T20:52:46.224Z,8.67
2018-05-12T20:55:19.174Z,9.03
2018-05-12T20:57:52.387Z,8.43
2018-05-12T21:00:22.064Z,8.57
2018-05-12T21:02:51.620Z,8.50
2018-05-12T21:05:24.673Z,8.90
2018-05-12T21:07:55.219Z,9.50
2018-05-12T21:10:25.307Z,9.80
2018-05-12T21:12:56.189Z,8.73
2018-05-12T21:15:24.878Z,10.00
2018-05-12T21:17:54.448Z,9.03
2018-05-12T21:20:28.235Z,9.47
2018-05-12T21:22:57.789Z,9.07
2018-05-12T21:25:29.351Z,10.80
2018-05-12T21:27:59.343Z,9.27
2018-05-12T21:30:34.132Z,9.67
2018-05-12T21:33:03.766Z,9.37
2018-05-12T21:35:35.129Z,8.77
2018-05-12T21:38:04.788Z,9.60
2018-05-12T21:40:36.640Z,9.20
2018-05-12T21:43:05.698Z,8.47
2018-05-12T21:45:39.368Z,9.37
2018-05-12T21:48:08.986Z,9.67
2018-05-12T21:50:42.622Z,9.33
2018-05-12T21:53:12.466Z,9.77
2018-05-12T21:55:42.103Z,9.23
2018-05-12T21:58:11.608Z,9.77
2018-05-12T22:00:45.004Z,10.47
2018-05-12T22:03:14.739Z,9.90
2018-05-12T22:05:47.621Z,11.07
2018-05-12T22:08:17.591Z,9.83
2018-05-12T22:10:51.443Z,10.33
2018-05-12T22:13:23.883Z,10.13
2018-05-12T22:15:53.800Z,10.07
2018-05-12T22:18:23.327Z,9.47
2018-05-12T22:20:56.993Z,9.70
2018-05-12T22:23:28.235Z,9.10
2018-05-12T22:25:59.619Z,9.83
2018-05-12T22:28:29.214Z,9.50
2018-05-12T22:31:00.356Z,9.33
2018-05-12T22:33:29.391Z,10.17
2018-05-12T22:36:20.745Z,9.40
2018-05-12T22:38:51.458Z,9.83
2018-05-12T22:41:21.461Z,9.77
2018-05-12T22:43:51.491Z,8.80
2018-05-12T22:46:21.345Z,9.70
2018-05-12T22:48:50.990Z,10.40
2018-05-12T22:51:21.827Z,9.53
2018-05-12T22:53:51.795Z,9.67
2018-05-12T22:56:21.418Z,9.37
2018-05-12T22:58:50.984Z,9.30
2018-05-12T23:01:21.306Z,8.87
2018-05-12T23:03:50.671Z,9.57
2018-05-12T23:06:20.417Z,9.90
2018-05-12T23:08:50.276Z,9.97
2018-05-12T23:11:20.424Z,10.37
2018-05-12T23:13:50.507Z,10.80
2018-05-12T23:16:22.270Z,10.47
2018-05-12T23:18:53.373Z,10.93
2018-05-12T23:21:24.885Z,11.27
2018-05-12T23:23:54.935Z,13.27
2018-05-12T23:26:28.363Z,12.27
2018-05-12T23:28:58.515Z,12.53
2018-05-12T23:31:29.370Z,12.53
2018-05-12T23:33:58.931Z,12.80
2018-05-12T23:36:31.251Z,13.83
2018-05-12T23:52:14.878Z,13.53
2018-05-12T23:54:44.437Z,14.20
2018-05-12T23:57:14.848Z,13.53
2018-05-12T23:59:43.991Z,13.80
